Ouray, CO

12:26 PM MST on February 10, 2016 (GMT -0700)
Ouray | | Change Station
CLOSE
Current Station
Personal Weather Station
Location: Ouray, CO
Elevation: 7736 ft
Nearby Weather Stations

Elev 7736 ft 38.03 °N, 107.67 °W | Updated 6 seconds ago

Clear
Clear
54.7 °F
Feels Like 54.7 °F
N
5.0
Wind Variable Wind from NNW
Gusts 6.0 mph

Today
High -- | Low -- °F
--% Chance of Precip.
Yesterday
High -- | Low -- °F
Precip. -- in
Pressure 30.49 in
Visibility 10.0 miles
Clouds Clear
Dew Point 9 °F
Humidity 16%
Rainfall 0.00 in
Snow Depth Not available.
7:07 AM 5:43 PM
Waxing Crescent, 7% visible
METAR KTEX 101915Z AUTO 25006KT 10SM CLR 10/M20 A3049 RMK AO2 T00981201
Pressure 30.49 in
Visibility 10.0 miles
Clouds Clear
Dew Point 9 °F
Humidity 16%
Rainfall 0.00 in
Snow Depth Not available.
7:07 AM 5:43 PM
Waxing Crescent, 7% visible
METAR KTEX 101915Z AUTO 25006KT 10SM CLR 10/M20 A3049 RMK AO2 T00981201

10-Day Weather Forecast

Almanac

Astronomy

Feb. 10, 2016 Rise Set
Actual Time
Civil Twilight
Nautical Twilight
Astronomical Twilight
Moon
Length of Visible Light
Length of Day
Tomorrow will be .
, % of the Moon is Illuminated

Today's Extremes

State Highs State Lows

Community

WunderPhotos

Upload Photos

1,891,922 photos uploaded!

WunderBlog® & News

Nearby

Air Quality

  Air Quality AQ Index Pollutant
Not available.

Snow Depth

Station Depth Elevation

Earthquake Activity

City Distance Mag. Time & Date
Minimum magnitude displayed is 2.5.

Coastal Water Temperatures

Place Temperature

Stations

Nearby Weather Stations

Station Location Temp. Windchill Dew Point Humidity Wind Precip. Elev Updated Type
                   

Watches & Warnings

There are currently no watches in effect.